sensor_id;sensor_type;location;lat;lon;timestamp;temperature;humidity
73780;SHT30;62093;37.614;15.072;2023-12-20T00:00:22;15.10;63.00
73780;SHT30;62093;37.614;15.072;2023-12-20T00:02:48;15.06;62.77
73780;SHT30;62093;37.614;15.072;2023-12-20T00:05:14;15.04;62.99
73780;SHT30;62093;37.614;15.072;2023-12-20T00:07:40;15.06;62.91
73780;SHT30;62093;37.614;15.072;2023-12-20T00:10:06;15.06;62.84
73780;SHT30;62093;37.614;15.072;2023-12-20T00:12:33;15.04;62.94
73780;SHT30;62093;37.614;15.072;2023-12-20T00:14:58;15.06;62.72
73780;SHT30;62093;37.614;15.072;2023-12-20T00:17:24;15.06;62.83
73780;SHT30;62093;37.614;15.072;2023-12-20T00:19:50;15.06;62.70
73780;SHT30;62093;37.614;15.072;2023-12-20T00:22:16;15.04;62.75
73780;SHT30;62093;37.614;15.072;2023-12-20T00:24:42;15.03;62.57
73780;SHT30;62093;37.614;15.072;2023-12-20T00:27:08;15.03;62.69
73780;SHT30;62093;37.614;15.072;2023-12-20T00:29:34;15.02;62.64
73780;SHT30;62093;37.614;15.072;2023-12-20T00:32:00;15.02;62.78
73780;SHT30;62093;37.614;15.072;2023-12-20T00:34:26;15.02;62.51
73780;SHT30;62093;37.614;15.072;2023-12-20T00:36:51;15.00;62.53
73780;SHT30;62093;37.614;15.072;2023-12-20T00:39:17;15.04;62.52
73780;SHT30;62093;37.614;15.072;2023-12-20T00:41:43;14.99;62.55
73780;SHT30;62093;37.614;15.072;2023-12-20T00:44:09;15.02;62.63
73780;SHT30;62093;37.614;15.072;2023-12-20T00:46:35;14.96;62.53
73780;SHT30;62093;37.614;15.072;2023-12-20T00:49:01;15.00;62.62
73780;SHT30;62093;37.614;15.072;2023-12-20T00:51:27;14.99;62.76
73780;SHT30;62093;37.614;15.072;2023-12-20T00:53:53;15.00;62.72
73780;SHT30;62093;37.614;15.072;2023-12-20T00:56:20;14.96;62.77
73780;SHT30;62093;37.614;15.072;2023-12-20T00:58:47;14.96;62.71
73780;SHT30;62093;37.614;15.072;2023-12-20T01:01:13;14.98;62.67
73780;SHT30;62093;37.614;15.072;2023-12-20T01:03:38;14.98;62.66
73780;SHT30;62093;37.614;15.072;2023-12-20T01:06:04;14.99;62.67
73780;SHT30;62093;37.614;15.072;2023-12-20T01:08:31;14.98;62.66
73780;SHT30;62093;37.614;15.072;2023-12-20T01:10:56;14.96;62.61
73780;SHT30;62093;37.614;15.072;2023-12-20T01:13:22;14.98;62.68
73780;SHT30;62093;37.614;15.072;2023-12-20T01:15:48;14.93;62.70
73780;SHT30;62093;37.614;15.072;2023-12-20T01:18:14;14.93;62.54
73780;SHT30;62093;37.614;15.072;2023-12-20T01:20:40;14.93;62.59
73780;SHT30;62093;37.614;15.072;2023-12-20T01:23:06;14.92;62.58
73780;SHT30;62093;37.614;15.072;2023-12-20T01:25:32;14.95;62.67
73780;SHT30;62093;37.614;15.072;2023-12-20T01:27:58;14.92;62.69
73780;SHT30;62093;37.614;15.072;2023-12-20T01:30:24;14.95;62.76
73780;SHT30;62093;37.614;15.072;2023-12-20T01:32:50;14.93;62.70
73780;SHT30;62093;37.614;15.072;2023-12-20T01:35:16;14.95;62.76
73780;SHT30;62093;37.614;15.072;2023-12-20T01:37:42;14.93;62.79
73780;SHT30;62093;37.614;15.072;2023-12-20T01:40:08;14.93;62.62
73780;SHT30;62093;37.614;15.072;2023-12-20T01:42:34;14.92;62.73
73780;SHT30;62093;37.614;15.072;2023-12-20T01:45:00;14.92;62.92
73780;SHT30;62093;37.614;15.072;2023-12-20T01:47:26;14.92;62.86
73780;SHT30;62093;37.614;15.072;2023-12-20T01:49:52;14.91;62.93
73780;SHT30;62093;37.614;15.072;2023-12-20T01:52:19;14.89;62.84
73780;SHT30;62093;37.614;15.072;2023-12-20T01:54:47;14.91;62.90
73780;SHT30;62093;37.614;15.072;2023-12-20T01:57:13;14.91;62.88
73780;SHT30;62093;37.614;15.072;2023-12-20T01:59:40;14.91;62.74
73780;SHT30;62093;37.614;15.072;2023-12-20T02:02:07;14.91;62.81
73780;SHT30;62093;37.614;15.072;2023-12-20T02:04:33;14.89;62.81
73780;SHT30;62093;37.614;15.072;2023-12-20T02:07:00;14.88;62.77
73780;SHT30;62093;37.614;15.072;2023-12-20T02:09:27;14.88;62.76
73780;SHT30;62093;37.614;15.072;2023-12-20T02:11:54;14.88;62.76
73780;SHT30;62093;37.614;15.072;2023-12-20T02:14:20;14.88;62.85
73780;SHT30;62093;37.614;15.072;2023-12-20T02:16:46;14.89;62.78
73780;SHT30;62093;37.614;15.072;2023-12-20T02:19:15;14.88;63.00
73780;SHT30;62093;37.614;15.072;2023-12-20T02:21:41;14.86;62.82
73780;SHT30;62093;37.614;15.072;2023-12-20T02:24:07;14.86;62.81
73780;SHT30;62093;37.614;15.072;2023-12-20T02:26:33;14.86;62.93
73780;SHT30;62093;37.614;15.072;2023-12-20T02:29:00;14.86;62.78
73780;SHT30;62093;37.614;15.072;2023-12-20T02:31:26;14.89;62.86
73780;SHT30;62093;37.614;15.072;2023-12-20T02:33:52;14.86;62.79
73780;SHT30;62093;37.614;15.072;2023-12-20T02:36:18;14.89;62.71
73780;SHT30;62093;37.614;15.072;2023-12-20T02:38:44;14.83;62.88
73780;SHT30;62093;37.614;15.072;2023-12-20T02:41:10;14.88;62.85
73780;SHT30;62093;37.614;15.072;2023-12-20T02:43:35;14.88;62.77
73780;SHT30;62093;37.614;15.072;2023-12-20T02:46:01;14.88;62.84
73780;SHT30;62093;37.614;15.072;2023-12-20T02:48:27;14.86;62.69
73780;SHT30;62093;37.614;15.072;2023-12-20T02:50:54;14.86;62.67
73780;SHT30;62093;37.614;15.072;2023-12-20T02:53:20;14.88;62.61
73780;SHT30;62093;37.614;15.072;2023-12-20T02:55:46;14.86;62.74
73780;SHT30;62093;37.614;15.072;2023-12-20T02:58:12;14.85;62.70
73780;SHT30;62093;37.614;15.072;2023-12-20T03:00:38;14.83;62.71
73780;SHT30;62093;37.614;15.072;2023-12-20T03:03:04;14.85;62.61
73780;SHT30;62093;37.614;15.072;2023-12-20T03:05:30;14.83;62.71
73780;SHT30;62093;37.614;15.072;2023-12-20T03:07:56;14.86;62.60
73780;SHT30;62093;37.614;15.072;2023-12-20T03:10:21;14.85;62.72
73780;SHT30;62093;37.614;15.072;2023-12-20T03:12:47;14.82;62.63
73780;SHT30;62093;37.614;15.072;2023-12-20T03:15:13;14.82;62.73
73780;SHT30;62093;37.614;15.072;2023-12-20T03:17:39;14.83;62.83
73780;SHT30;62093;37.614;15.072;2023-12-20T03:20:05;14.85;62.92
73780;SHT30;62093;37.614;15.072;2023-12-20T03:22:31;14.81;62.93
73780;SHT30;62093;37.614;15.072;2023-12-20T03:24:57;14.86;62.91
73780;SHT30;62093;37.614;15.072;2023-12-20T03:27:23;14.83;62.91
73780;SHT30;62093;37.614;15.072;2023-12-20T03:29:49;14.85;62.90
73780;SHT30;62093;37.614;15.072;2023-12-20T03:32:15;14.86;62.87
73780;SHT30;62093;37.614;15.072;2023-12-20T03:34:41;14.83;62.97
73780;SHT30;62093;37.614;15.072;2023-12-20T03:37:07;14.85;63.00
73780;SHT30;62093;37.614;15.072;2023-12-20T03:39:33;14.85;62.94
73780;SHT30;62093;37.614;15.072;2023-12-20T03:41:59;14.85;63.00
73780;SHT30;62093;37.614;15.072;2023-12-20T03:44:25;14.83;63.07
73780;SHT30;62093;37.614;15.072;2023-12-20T03:46:51;14.85;62.99
73780;SHT30;62093;37.614;15.072;2023-12-20T03:49:17;14.88;62.89
73780;SHT30;62093;37.614;15.072;2023-12-20T03:51:43;14.85;62.95
73780;SHT30;62093;37.614;15.072;2023-12-20T03:54:09;14.85;62.89
73780;SHT30;62093;37.614;15.072;2023-12-20T03:56:35;14.82;62.83
73780;SHT30;62093;37.614;15.072;2023-12-20T03:59:01;14.85;62.83
73780;SHT30;62093;37.614;15.072;2023-12-20T04:01:27;14.83;62.95
73780;SHT30;62093;37.614;15.072;2023-12-20T04:03:52;14.82;62.81
73780;SHT30;62093;37.614;15.072;2023-12-20T04:06:18;14.85;62.81
73780;SHT30;62093;37.614;15.072;2023-12-20T04:08:44;14.83;62.76
73780;SHT30;62093;37.614;15.072;2023-12-20T04:11:10;14.82;62.83
73780;SHT30;62093;37.614;15.072;2023-12-20T04:13:36;14.83;62.62
73780;SHT30;62093;37.614;15.072;2023-12-20T04:16:02;14.83;62.64
73780;SHT30;62093;37.614;15.072;2023-12-20T04:18:28;14.83;62.71
73780;SHT30;62093;37.614;15.072;2023-12-20T04:20:54;14.82;62.73
73780;SHT30;62093;37.614;15.072;2023-12-20T04:23:20;14.81;62.59
73780;SHT30;62093;37.614;15.072;2023-12-20T04:25:46;14.83;62.59
73780;SHT30;62093;37.614;15.072;2023-12-20T04:28:12;14.82;62.61
73780;SHT30;62093;37.614;15.072;2023-12-20T04:30:38;14.82;62.55
73780;SHT30;62093;37.614;15.072;2023-12-20T04:33:04;14.83;62.55
73780;SHT30;62093;37.614;15.072;2023-12-20T04:35:30;14.82;62.55
73780;SHT30;62093;37.614;15.072;2023-12-20T04:37:56;14.79;62.56
73780;SHT30;62093;37.614;15.072;2023-12-20T04:40:22;14.78;62.53
73780;SHT30;62093;37.614;15.072;2023-12-20T04:42:48;14.82;62.57
73780;SHT30;62093;37.614;15.072;2023-12-20T04:45:14;14.81;62.78
73780;SHT30;62093;37.614;15.072;2023-12-20T04:47:44;14.76;62.55
73780;SHT30;62093;37.614;15.072;2023-12-20T04:50:10;14.79;62.55
73780;SHT30;62093;37.614;15.072;2023-12-20T04:52:37;14.78;62.57
73780;SHT30;62093;37.614;15.072;2023-12-20T04:55:03;14.79;62.59
73780;SHT30;62093;37.614;15.072;2023-12-20T04:57:29;14.76;62.46
73780;SHT30;62093;37.614;15.072;2023-12-20T04:59:55;14.79;62.38
73780;SHT30;62093;37.614;15.072;2023-12-20T05:02:21;14.76;62.49
73780;SHT30;62093;37.614;15.072;2023-12-20T05:04:47;14.76;62.44
73780;SHT30;62093;37.614;15.072;2023-12-20T05:07:13;14.78;62.39
73780;SHT30;62093;37.614;15.072;2023-12-20T05:09:39;14.76;62.35
73780;SHT30;62093;37.614;15.072;2023-12-20T05:12:06;14.75;62.41
73780;SHT30;62093;37.614;15.072;2023-12-20T05:14:32;14.75;62.49
73780;SHT30;62093;37.614;15.072;2023-12-20T05:16:58;14.73;62.40
73780;SHT30;62093;37.614;15.072;2023-12-20T05:19:24;14.73;62.49
73780;SHT30;62093;37.614;15.072;2023-12-20T05:21:50;14.76;62.16
73780;SHT30;62093;37.614;15.072;2023-12-20T05:24:16;14.75;62.41
73780;SHT30;62093;37.614;15.072;2023-12-20T05:26:42;14.75;62.25
73780;SHT30;62093;37.614;15.072;2023-12-20T05:29:08;14.73;62.34
73780;SHT30;62093;37.614;15.072;2023-12-20T05:31:34;14.73;62.54
73780;SHT30;62093;37.614;15.072;2023-12-20T05:34:00;14.73;62.44
73780;SHT30;62093;37.614;15.072;2023-12-20T05:36:26;14.73;62.35
73780;SHT30;62093;37.614;15.072;2023-12-20T05:38:52;14.72;62.46
73780;SHT30;62093;37.614;15.072;2023-12-20T05:41:19;14.75;62.29
73780;SHT30;62093;37.614;15.072;2023-12-20T05:43:45;14.75;62.38
73780;SHT30;62093;37.614;15.072;2023-12-20T05:46:11;14.72;62.46
73780;SHT30;62093;37.614;15.072;2023-12-20T05:48:37;14.72;62.38
73780;SHT30;62093;37.614;15.072;2023-12-20T05:51:04;14.71;62.35
73780;SHT30;62093;37.614;15.072;2023-12-20T05:53:30;14.73;62.45
73780;SHT30;62093;37.614;15.072;2023-12-20T05:55:55;14.72;62.23
73780;SHT30;62093;37.614;15.072;2023-12-20T05:58:21;14.72;62.28
73780;SHT30;62093;37.614;15.072;2023-12-20T06:00:47;14.73;62.15
73780;SHT30;62093;37.614;15.072;2023-12-20T06:03:14;14.73;62.06
73780;SHT30;62093;37.614;15.072;2023-12-20T06:05:40;14.72;62.37
73780;SHT30;62093;37.614;15.072;2023-12-20T06:08:06;14.72;62.46
73780;SHT30;62093;37.614;15.072;2023-12-20T06:10:32;14.73;62.61
73780;SHT30;62093;37.614;15.072;2023-12-20T06:12:58;14.72;62.61
73780;SHT30;62093;37.614;15.072;2023-12-20T06:15:26;14.73;62.58
73780;SHT30;62093;37.614;15.072;2023-12-20T06:17:52;14.73;62.68
73780;SHT30;62093;37.614;15.072;2023-12-20T06:20:18;14.73;62.56
73780;SHT30;62093;37.614;15.072;2023-12-20T06:22:43;14.76;62.61
73780;SHT30;62093;37.614;15.072;2023-12-20T06:25:09;14.73;62.78
73780;SHT30;62093;37.614;15.072;2023-12-20T06:27:35;14.72;62.67
73780;SHT30;62093;37.614;15.072;2023-12-20T06:30:02;14.73;62.66
73780;SHT30;62093;37.614;15.072;2023-12-20T06:32:27;14.75;62.57
73780;SHT30;62093;37.614;15.072;2023-12-20T06:34:54;14.72;62.71
73780;SHT30;62093;37.614;15.072;2023-12-20T06:37:20;14.73;62.64
73780;SHT30;62093;37.614;15.072;2023-12-20T06:39:46;14.75;62.74
73780;SHT30;62093;37.614;15.072;2023-12-20T06:42:12;14.75;62.66
73780;SHT30;62093;37.614;15.072;2023-12-20T06:44:38;14.73;62.82
73780;SHT30;62093;37.614;15.072;2023-12-20T06:47:05;14.75;62.71
73780;SHT30;62093;37.614;15.072;2023-12-20T06:49:31;14.76;62.74
73780;SHT30;62093;37.614;15.072;2023-12-20T06:51:57;14.75;62.81
73780;SHT30;62093;37.614;15.072;2023-12-20T06:54:23;14.75;62.83
73780;SHT30;62093;37.614;15.072;2023-12-20T06:56:49;14.75;62.98
73780;SHT30;62093;37.614;15.072;2023-12-20T06:59:15;14.76;62.93
73780;SHT30;62093;37.614;15.072;2023-12-20T07:01:41;14.78;62.90
73780;SHT30;62093;37.614;15.072;2023-12-20T07:04:08;14.78;62.91
73780;SHT30;62093;37.614;15.072;2023-12-20T07:06:34;14.79;62.88
73780;SHT30;62093;37.614;15.072;2023-12-20T07:09:00;14.79;62.88
73780;SHT30;62093;37.614;15.072;2023-12-20T07:11:26;14.81;62.89
73780;SHT30;62093;37.614;15.072;2023-12-20T07:13:52;14.81;62.97
73780;SHT30;62093;37.614;15.072;2023-12-20T07:16:17;14.81;62.96
73780;SHT30;62093;37.614;15.072;2023-12-20T07:18:43;14.81;62.93
73780;SHT30;62093;37.614;15.072;2023-12-20T07:21:09;14.81;62.87
73780;SHT30;62093;37.614;15.072;2023-12-20T07:23:35;14.82;62.91
73780;SHT30;62093;37.614;15.072;2023-12-20T07:26:01;14.82;62.87
73780;SHT30;62093;37.614;15.072;2023-12-20T07:28:27;14.83;62.82
73780;SHT30;62093;37.614;15.072;2023-12-20T07:30:53;14.85;62.88
73780;SHT30;62093;37.614;15.072;2023-12-20T07:33:19;14.85;62.64
73780;SHT30;62093;37.614;15.072;2023-12-20T07:35:45;14.86;62.83
73780;SHT30;62093;37.614;15.072;2023-12-20T07:38:11;14.86;62.77
73780;SHT30;62093;37.614;15.072;2023-12-20T07:40:37;14.89;62.71
73780;SHT30;62093;37.614;15.072;2023-12-20T07:43:04;14.89;62.84
73780;SHT30;62093;37.614;15.072;2023-12-20T07:45:30;14.88;62.81
73780;SHT30;62093;37.614;15.072;2023-12-20T07:47:56;14.88;62.77
73780;SHT30;62093;37.614;15.072;2023-12-20T07:50:22;14.91;62.82
73780;SHT30;62093;37.614;15.072;2023-12-20T07:52:48;14.93;62.74
73780;SHT30;62093;37.614;15.072;2023-12-20T07:55:14;14.93;62.75
73780;SHT30;62093;37.614;15.072;2023-12-20T07:57:40;14.91;62.75
73780;SHT30;62093;37.614;15.072;2023-12-20T08:00:06;14.91;62.78
73780;SHT30;62093;37.614;15.072;2023-12-20T08:02:32;14.93;62.80
73780;SHT30;62093;37.614;15.072;2023-12-20T08:04:57;14.93;62.82
73780;SHT30;62093;37.614;15.072;2023-12-20T08:07:23;14.93;62.73
73780;SHT30;62093;37.614;15.072;2023-12-20T08:09:49;14.96;62.75
73780;SHT30;62093;37.614;15.072;2023-12-20T08:12:16;14.96;62.77
73780;SHT30;62093;37.614;15.072;2023-12-20T08:14:42;14.98;62.84
73780;SHT30;62093;37.614;15.072;2023-12-20T08:17:08;14.99;62.77
73780;SHT30;62093;37.614;15.072;2023-12-20T08:19:34;14.99;62.64
73780;SHT30;62093;37.614;15.072;2023-12-20T08:21:59;14.99;62.77
73780;SHT30;62093;37.614;15.072;2023-12-20T08:24:25;15.00;62.77
73780;SHT30;62093;37.614;15.072;2023-12-20T08:26:51;15.00;62.70
73780;SHT30;62093;37.614;15.072;2023-12-20T08:29:18;14.99;62.62
73780;SHT30;62093;37.614;15.072;2023-12-20T08:31:43;15.02;62.66
73780;SHT30;62093;37.614;15.072;2023-12-20T08:34:09;15.03;62.61
73780;SHT30;62093;37.614;15.072;2023-12-20T08:36:37;15.04;62.61
73780;SHT30;62093;37.614;15.072;2023-12-20T08:39:02;15.02;62.58
73780;SHT30;62093;37.614;15.072;2023-12-20T08:41:32;15.03;62.63
73780;SHT30;62093;37.614;15.072;2023-12-20T08:43:57;15.04;62.51
73780;SHT30;62093;37.614;15.072;2023-12-20T08:46:23;15.10;62.49
73780;SHT30;62093;37.614;15.072;2023-12-20T08:48:49;15.04;62.48
73780;SHT30;62093;37.614;15.072;2023-12-20T08:51:15;15.09;62.49
73780;SHT30;62093;37.614;15.072;2023-12-20T08:53:40;15.09;62.51
73780;SHT30;62093;37.614;15.072;2023-12-20T08:56:07;15.13;62.18
73780;SHT30;62093;37.614;15.072;2023-12-20T08:58:32;15.13;62.14
73780;SHT30;62093;37.614;15.072;2023-12-20T09:00:59;15.13;62.32
73780;SHT30;62093;37.614;15.072;2023-12-20T09:03:24;15.14;62.26
73780;SHT30;62093;37.614;15.072;2023-12-20T09:05:50;15.18;62.35
73780;SHT30;62093;37.614;15.072;2023-12-20T09:08:16;15.14;62.29
73780;SHT30;62093;37.614;15.072;2023-12-20T09:10:42;15.16;62.25
73780;SHT30;62093;37.614;15.072;2023-12-20T09:13:07;15.16;62.31
73780;SHT30;62093;37.614;15.072;2023-12-20T09:15:33;15.16;62.21
73780;SHT30;62093;37.614;15.072;2023-12-20T09:17:59;15.19;62.13
73780;SHT30;62093;37.614;15.072;2023-12-20T09:20:26;15.20;62.09
73780;SHT30;62093;37.614;15.072;2023-12-20T09:22:53;15.19;61.84
73780;SHT30;62093;37.614;15.072;2023-12-20T09:25:18;15.20;61.81
73780;SHT30;62093;37.614;15.072;2023-12-20T09:27:44;15.22;61.71
73780;SHT30;62093;37.614;15.072;2023-12-20T09:30:10;15.23;61.74
73780;SHT30;62093;37.614;15.072;2023-12-20T09:32:36;15.22;61.63
73780;SHT30;62093;37.614;15.072;2023-12-20T09:35:02;15.24;61.68
73780;SHT30;62093;37.614;15.072;2023-12-20T09:37:28;15.26;61.47
73780;SHT30;62093;37.614;15.072;2023-12-20T09:39:54;15.27;61.33
73780;SHT30;62093;37.614;15.072;2023-12-20T09:42:36;15.24;61.34
73780;SHT30;62093;37.614;15.072;2023-12-20T09:45:08;15.26;61.41
73780;SHT30;62093;37.614;15.072;2023-12-20T09:47:35;15.29;61.53
73780;SHT30;62093;37.614;15.072;2023-12-20T09:50:02;15.27;61.18
73780;SHT30;62093;37.614;15.072;2023-12-20T09:52:28;15.26;61.39
73780;SHT30;62093;37.614;15.072;2023-12-20T09:54:55;15.27;61.27
73780;SHT30;62093;37.614;15.072;2023-12-20T09:57:22;15.30;61.12
73780;SHT30;62093;37.614;15.072;2023-12-20T09:59:48;15.29;61.45
73780;SHT30;62093;37.614;15.072;2023-12-20T10:02:13;15.30;61.40
73780;SHT30;62093;37.614;15.072;2023-12-20T10:04:48;15.31;61.32
73780;SHT30;62093;37.614;15.072;2023-12-20T10:07:15;15.33;61.34
73780;SHT30;62093;37.614;15.072;2023-12-20T10:09:41;15.36;61.12
73780;SHT30;62093;37.614;15.072;2023-12-20T10:12:07;15.36;61.29
73780;SHT30;62093;37.614;15.072;2023-12-20T10:14:34;15.36;61.06
73780;SHT30;62093;37.614;15.072;2023-12-20T10:17:03;15.36;60.83
73780;SHT30;62093;37.614;15.072;2023-12-20T10:19:30;15.36;60.83
73780;SHT30;62093;37.614;15.072;2023-12-20T10:21:56;15.36;60.92
73780;SHT30;62093;37.614;15.072;2023-12-20T10:24:23;15.37;61.02
73780;SHT30;62093;37.614;15.072;2023-12-20T10:27:01;15.39;60.97
73780;SHT30;62093;37.614;15.072;2023-12-20T10:29:35;15.36;61.03
73780;SHT30;62093;37.614;15.072;2023-12-20T10:32:21;15.39;60.82
73780;SHT30;62093;37.614;15.072;2023-12-20T10:34:48;15.40;60.85
73780;SHT30;62093;37.614;15.072;2023-12-20T10:37:14;15.40;60.95
73780;SHT30;62093;37.614;15.072;2023-12-20T10:39:40;15.39;61.03
73780;SHT30;62093;37.614;15.072;2023-12-20T10:42:07;15.39;60.99
73780;SHT30;62093;37.614;15.072;2023-12-20T10:44:34;15.37;61.11
73780;SHT30;62093;37.614;15.072;2023-12-20T10:46:59;15.40;60.98
73780;SHT30;62093;37.614;15.072;2023-12-20T10:49:26;15.40;60.98
73780;SHT30;62093;37.614;15.072;2023-12-20T10:51:54;15.41;61.15
73780;SHT30;62093;37.614;15.072;2023-12-20T10:54:20;15.41;60.97
73780;SHT30;62093;37.614;15.072;2023-12-20T10:56:46;15.41;60.86
73780;SHT30;62093;37.614;15.072;2023-12-20T10:59:13;15.41;61.00
73780;SHT30;62093;37.614;15.072;2023-12-20T11:01:40;15.40;61.10
73780;SHT30;62093;37.614;15.072;2023-12-20T11:04:08;15.40;61.08
73780;SHT30;62093;37.614;15.072;2023-12-20T11:06:36;15.39;61.21
73780;SHT30;62093;37.614;15.072;2023-12-20T11:09:39;15.40;61.18
73780;SHT30;62093;37.614;15.072;2023-12-20T11:12:24;15.43;61.16
73780;SHT30;62093;37.614;15.072;2023-12-20T11:14:53;15.41;61.24
73780;SHT30;62093;37.614;15.072;2023-12-20T11:17:22;15.43;61.33
73780;SHT30;62093;37.614;15.072;2023-12-20T11:22:21;15.43;61.31
73780;SHT30;62093;37.614;15.072;2023-12-20T11:24:47;15.43;61.19
73780;SHT30;62093;37.614;15.072;2023-12-20T11:27:14;15.44;61.35
73780;SHT30;62093;37.614;15.072;2023-12-20T11:29:41;15.44;61.38
73780;SHT30;62093;37.614;15.072;2023-12-20T11:34:55;15.44;61.35
73780;SHT30;62093;37.614;15.072;2023-12-20T11:37:21;15.46;61.17
73780;SHT30;62093;37.614;15.072;2023-12-20T11:40:01;15.47;61.36
73780;SHT30;62093;37.614;15.072;2023-12-20T11:42:28;15.47;61.30
73780;SHT30;62093;37.614;15.072;2023-12-20T11:44:53;15.47;61.30
73780;SHT30;62093;37.614;15.072;2023-12-20T11:47:19;15.50;61.39
73780;SHT30;62093;37.614;15.072;2023-12-20T11:49:48;15.50;61.36
73780;SHT30;62093;37.614;15.072;2023-12-20T11:52:14;15.49;61.44
73780;SHT30;62093;37.614;15.072;2023-12-20T11:54:40;15.49;61.33
73780;SHT30;62093;37.614;15.072;2023-12-20T11:57:06;15.50;61.38
73780;SHT30;62093;37.614;15.072;2023-12-20T11:59:31;15.49;61.29
73780;SHT30;62093;37.614;15.072;2023-12-20T12:01:58;15.50;61.41
73780;SHT30;62093;37.614;15.072;2023-12-20T12:04:27;15.53;61.33
73780;SHT30;62093;37.614;15.072;2023-12-20T12:06:53;15.53;61.32
73780;SHT30;62093;37.614;15.072;2023-12-20T12:09:19;15.50;61.41
73780;SHT30;62093;37.614;15.072;2023-12-20T12:11:45;15.50;61.27
73780;SHT30;62093;37.614;15.072;2023-12-20T12:14:11;15.51;61.34
73780;SHT30;62093;37.614;15.072;2023-12-20T12:16:37;15.53;61.33
73780;SHT30;62093;37.614;15.072;2023-12-20T12:19:02;15.53;61.31
73780;SHT30;62093;37.614;15.072;2023-12-20T12:21:29;15.54;61.29
73780;SHT30;62093;37.614;15.072;2023-12-20T12:24:06;15.55;61.18
73780;SHT30;62093;37.614;15.072;2023-12-20T12:26:32;15.57;61.34
73780;SHT30;62093;37.614;15.072;2023-12-20T12:28:58;15.54;61.22
73780;SHT30;62093;37.614;15.072;2023-12-20T12:31:24;15.54;61.17
73780;SHT30;62093;37.614;15.072;2023-12-20T12:33:52;15.55;61.38
73780;SHT30;62093;37.614;15.072;2023-12-20T12:36:18;15.55;61.30
73780;SHT30;62093;37.614;15.072;2023-12-20T12:38:43;15.54;61.09
73780;SHT30;62093;37.614;15.072;2023-12-20T12:41:12;15.55;61.16
73780;SHT30;62093;37.614;15.072;2023-12-20T12:43:38;15.55;61.18
73780;SHT30;62093;37.614;15.072;2023-12-20T12:46:04;15.57;61.26
73780;SHT30;62093;37.614;15.072;2023-12-20T12:48:30;15.55;61.27
73780;SHT30;62093;37.614;15.072;2023-12-20T12:50:55;15.54;61.28
73780;SHT30;62093;37.614;15.072;2023-12-20T12:53:25;15.57;61.11
73780;SHT30;62093;37.614;15.072;2023-12-20T12:55:52;15.58;61.12
73780;SHT30;62093;37.614;15.072;2023-12-20T12:58:20;15.55;61.21
73780;SHT30;62093;37.614;15.072;2023-12-20T13:00:46;15.57;61.21
73780;SHT30;62093;37.614;15.072;2023-12-20T13:03:12;15.55;61.26
73780;SHT30;62093;37.614;15.072;2023-12-20T13:05:38;15.57;61.25
73780;SHT30;62093;37.614;15.072;2023-12-20T13:08:04;15.55;61.27
73780;SHT30;62093;37.614;15.072;2023-12-20T13:10:30;15.60;61.25
73780;SHT30;62093;37.614;15.072;2023-12-20T13:12:56;15.58;61.22
73780;SHT30;62093;37.614;15.072;2023-12-20T13:15:22;15.58;61.14
73780;SHT30;62093;37.614;15.072;2023-12-20T13:17:48;15.60;61.14
73780;SHT30;62093;37.614;15.072;2023-12-20T13:20:14;15.58;61.00
73780;SHT30;62093;37.614;15.072;2023-12-20T13:22:40;15.60;61.21
73780;SHT30;62093;37.614;15.072;2023-12-20T13:25:06;15.63;61.23
73780;SHT30;62093;37.614;15.072;2023-12-20T13:27:32;15.63;61.17
73780;SHT30;62093;37.614;15.072;2023-12-20T13:29:58;15.61;61.17
73780;SHT30;62093;37.614;15.072;2023-12-20T13:32:24;15.61;61.17
73780;SHT30;62093;37.614;15.072;2023-12-20T13:34:50;15.63;61.20
73780;SHT30;62093;37.614;15.072;2023-12-20T13:37:16;15.61;61.13
73780;SHT30;62093;37.614;15.072;2023-12-20T13:39:42;15.63;61.12
73780;SHT30;62093;37.614;15.072;2023-12-20T13:42:08;15.65;61.04
73780;SHT30;62093;37.614;15.072;2023-12-20T13:44:34;15.64;60.98
73780;SHT30;62093;37.614;15.072;2023-12-20T13:47:00;15.65;61.19
73780;SHT30;62093;37.614;15.072;2023-12-20T13:49:27;15.65;61.09
73780;SHT30;62093;37.614;15.072;2023-12-20T13:51:54;15.61;61.19
73780;SHT30;62093;37.614;15.072;2023-12-20T13:54:20;15.64;61.27
73780;SHT30;62093;37.614;15.072;2023-12-20T13:56:48;15.65;61.36
73780;SHT30;62093;37.614;15.072;2023-12-20T13:59:15;15.67;61.28
73780;SHT30;62093;37.614;15.072;2023-12-20T14:01:42;15.71;61.14
73780;SHT30;62093;37.614;15.072;2023-12-20T14:04:12;15.75;61.19
73780;SHT30;62093;37.614;15.072;2023-12-20T14:06:40;15.77;61.14
73780;SHT30;62093;37.614;15.072;2023-12-20T14:09:07;15.78;61.16
73780;SHT30;62093;37.614;15.072;2023-12-20T14:11:34;15.77;61.16
73780;SHT30;62093;37.614;15.072;2023-12-20T14:14:07;15.77;61.31
73780;SHT30;62093;37.614;15.072;2023-12-20T14:16:38;15.75;61.41
73780;SHT30;62093;37.614;15.072;2023-12-20T14:19:07;15.75;61.49
73780;SHT30;62093;37.614;15.072;2023-12-20T14:21:36;15.74;61.49
73780;SHT30;62093;37.614;15.072;2023-12-20T14:24:03;15.75;61.48
73780;SHT30;62093;37.614;15.072;2023-12-20T14:26:30;15.74;61.45
73780;SHT30;62093;37.614;15.072;2023-12-20T14:29:01;15.74;61.56
73780;SHT30;62093;37.614;15.072;2023-12-20T14:31:31;15.74;61.56
73780;SHT30;62093;37.614;15.072;2023-12-20T14:33:59;15.74;61.56
73780;SHT30;62093;37.614;15.072;2023-12-20T14:36:27;15.75;61.51
73780;SHT30;62093;37.614;15.072;2023-12-20T14:38:59;15.74;61.50
73780;SHT30;62093;37.614;15.072;2023-12-20T14:41:28;15.75;61.51
73780;SHT30;62093;37.614;15.072;2023-12-20T14:43:55;15.75;61.43
73780;SHT30;62093;37.614;15.072;2023-12-20T14:46:25;15.75;61.56
73780;SHT30;62093;37.614;15.072;2023-12-20T14:48:55;15.75;61.52
73780;SHT30;62093;37.614;15.072;2023-12-20T14:51:26;15.77;61.52
73780;SHT30;62093;37.614;15.072;2023-12-20T14:53:53;15.80;61.51
73780;SHT30;62093;37.614;15.072;2023-12-20T14:56:23;15.78;61.50
73780;SHT30;62093;37.614;15.072;2023-12-20T14:58:55;15.77;61.66
73780;SHT30;62093;37.614;15.072;2023-12-20T15:01:28;15.75;61.57
73780;SHT30;62093;37.614;15.072;2023-12-20T15:03:59;15.74;61.67
73780;SHT30;62093;37.614;15.072;2023-12-20T15:06:29;15.74;61.67
73780;SHT30;62093;37.614;15.072;2023-12-20T15:08:59;15.75;61.67
73780;SHT30;62093;37.614;15.072;2023-12-20T15:11:27;15.77;61.72
73780;SHT30;62093;37.614;15.072;2023-12-20T15:13:58;15.74;61.74
73780;SHT30;62093;37.614;15.072;2023-12-20T15:16:29;15.74;61.76